createdAt,value
2018-08-17T00:00:56.675Z,20.40
2018-08-17T00:03:25.424Z,20.40
2018-08-17T00:05:53.942Z,20.30
2018-08-17T00:08:22.440Z,20.30
2018-08-17T00:10:51.010Z,20.20
2018-08-17T00:13:19.475Z,20.20
2018-08-17T00:15:48.286Z,20.30
2018-08-17T00:18:17.062Z,20.30
2018-08-17T00:20:45.642Z,20.20
2018-08-17T00:23:14.106Z,20.30
2018-08-17T00:25:42.829Z,20.30
2018-08-17T00:28:11.266Z,20.20
2018-08-17T00:30:40.137Z,20.10
2018-08-17T00:33:08.586Z,20.10
2018-08-17T00:35:37.069Z,20.20
2018-08-17T00:38:05.735Z,20.20
2018-08-17T00:40:34.175Z,20.10
2018-08-17T00:43:02.802Z,20.10
2018-08-17T00:45:31.220Z,20.10
2018-08-17T00:48:00.198Z,20.10
2018-08-17T00:50:29.161Z,20.10
2018-08-17T00:52:58.060Z,20.00
2018-08-17T00:55:26.513Z,20.00
2018-08-17T00:57:55.102Z,19.90
2018-08-17T01:00:23.575Z,19.90
2018-08-17T01:02:52.108Z,19.80
2018-08-17T01:05:21.455Z,19.80
2018-08-17T01:07:50.045Z,19.80
2018-08-17T01:10:18.500Z,19.80
2018-08-17T01:12:47.079Z,19.90
2018-08-17T01:15:17.321Z,19.90
2018-08-17T01:17:45.947Z,19.90
2018-08-17T01:20:14.386Z,19.80
2018-08-17T01:22:43.170Z,19.70
2018-08-17T01:25:11.610Z,19.60
2018-08-17T01:27:40.310Z,19.60
2018-08-17T01:30:09.643Z,19.50
2018-08-17T01:32:38.782Z,19.60
2018-08-17T01:35:07.873Z,19.60
2018-08-17T01:37:36.612Z,19.50
2018-08-17T01:40:05.419Z,19.50
2018-08-17T01:42:34.158Z,19.50
2018-08-17T01:45:02.668Z,19.50
2018-08-17T01:47:31.338Z,19.50
2018-08-17T01:49:59.935Z,19.50
2018-08-17T01:52:28.360Z,19.50
2018-08-17T01:54:57.011Z,19.60
2018-08-17T01:57:25.603Z,19.60
2018-08-17T01:59:54.268Z,19.60
2018-08-17T02:02:22.732Z,19.60
2018-08-17T02:04:51.235Z,19.60
2018-08-17T02:07:19.685Z,19.50
2018-08-17T02:09:48.175Z,19.50
2018-08-17T02:12:16.592Z,19.50
2018-08-17T02:14:45.353Z,19.50
2018-08-17T02:17:14.124Z,19.50
2018-08-17T02:19:42.651Z,19.40
2018-08-17T02:22:11.207Z,19.30
2018-08-17T02:24:39.685Z,19.30
2018-08-17T02:27:08.416Z,19.30
2018-08-17T02:29:37.583Z,19.20
2018-08-17T02:32:06.488Z,19.10
2018-08-17T02:34:35.474Z,19.10
2018-08-17T02:37:04.336Z,19.00
2018-08-17T02:39:33.446Z,19.00
2018-08-17T02:42:02.106Z,19.00
2018-08-17T02:44:30.667Z,19.00
2018-08-17T02:46:59.197Z,19.00
2018-08-17T02:49:27.676Z,19.10
2018-08-17T02:51:56.538Z,19.10
2018-08-17T02:54:25.175Z,19.10
2018-08-17T02:56:53.582Z,19.00
2018-08-17T02:59:22.455Z,19.00
2018-08-17T03:01:51.169Z,19.00
2018-08-17T03:04:19.788Z,19.00
2018-08-17T03:06:48.353Z,19.00
2018-08-17T03:09:16.880Z,19.00
2018-08-17T03:11:45.417Z,18.90
2018-08-17T03:14:14.012Z,18.90
2018-08-17T03:16:42.439Z,18.80
2018-08-17T03:19:10.863Z,18.80
2018-08-17T03:21:39.440Z,18.80
2018-08-17T03:24:07.927Z,18.80
2018-08-17T03:26:36.604Z,18.70
2018-08-17T03:29:05.289Z,18.70
2018-08-17T03:31:34.141Z,18.70
2018-08-17T03:34:02.830Z,18.70
2018-08-17T03:36:31.413Z,18.80
2018-08-17T03:38:59.840Z,18.80
2018-08-17T03:41:28.429Z,18.80
2018-08-17T03:43:57.183Z,18.80
2018-08-17T03:46:25.642Z,18.80
2018-08-17T03:48:54.326Z,18.80
2018-08-17T03:51:22.894Z,18.80
2018-08-17T03:53:51.528Z,18.80
2018-08-17T03:56:20.218Z,18.80
2018-08-17T03:58:48.634Z,18.80
2018-08-17T04:01:17.306Z,18.80
2018-08-17T04:03:45.863Z,18.80
2018-08-17T04:06:14.441Z,18.90
2018-08-17T04:08:43.053Z,18.90
2018-08-17T04:11:11.513Z,18.90
2018-08-17T04:13:40.585Z,18.80
2018-08-17T04:16:09.362Z,18.80
2018-08-17T04:18:37.851Z,18.80
2018-08-17T04:21:06.359Z,18.80
2018-08-17T04:23:34.767Z,18.80
2018-08-17T04:26:03.363Z,18.90
2018-08-17T04:28:31.823Z,18.90
2018-08-17T04:31:00.400Z,18.90
2018-08-17T04:33:28.856Z,18.90
2018-08-17T04:35:57.434Z,18.80
2018-08-17T04:38:25.920Z,18.80
2018-08-17T04:40:54.383Z,18.70
2018-08-17T04:43:22.875Z,18.70
2018-08-17T04:45:51.346Z,18.70
2018-08-17T04:48:19.863Z,18.70
2018-08-17T04:50:48.495Z,18.80
2018-08-17T04:53:17.067Z,18.90
2018-08-17T04:55:45.542Z,18.90
2018-08-17T04:58:13.954Z,18.80
2018-08-17T05:00:42.491Z,18.90
2018-08-17T05:03:10.972Z,18.90
2018-08-17T05:05:39.414Z,18.90
2018-08-17T05:08:07.836Z,18.90
2018-08-17T05:10:36.560Z,18.90
2018-08-17T05:13:05.199Z,18.90
2018-08-17T05:15:33.609Z,19.00
2018-08-17T05:18:02.079Z,19.00
2018-08-17T05:20:30.516Z,19.10
2018-08-17T05:22:58.981Z,19.00
2018-08-17T05:25:27.627Z,19.00
2018-08-17T05:27:56.095Z,19.00
2018-08-17T05:30:24.713Z,19.00
2018-08-17T05:32:53.503Z,19.00
2018-08-17T05:35:22.890Z,19.10
2018-08-17T05:37:51.455Z,19.10
2018-08-17T05:40:19.894Z,19.10
2018-08-17T05:42:48.534Z,19.10
2018-08-17T05:45:16.966Z,19.10
2018-08-17T05:47:45.532Z,19.10
2018-08-17T05:50:13.950Z,19.10
2018-08-17T05:52:42.578Z,19.10
2018-08-17T05:55:11.570Z,19.10
2018-08-17T05:57:39.999Z,19.10
2018-08-17T06:00:10.147Z,19.20
2018-08-17T06:02:38.878Z,19.20
2018-08-17T06:05:08.312Z,19.30
2018-08-17T06:07:37.190Z,19.40
2018-08-17T06:10:07.326Z,19.50
2018-08-17T06:12:35.782Z,19.60
2018-08-17T06:15:05.551Z,19.70
2018-08-17T06:17:34.035Z,19.70
2018-08-17T06:20:02.487Z,19.80
2018-08-17T06:22:30.960Z,19.90
2018-08-17T06:24:59.427Z,20.00
2018-08-17T06:27:28.166Z,20.10
2018-08-17T06:29:56.567Z,20.20
2018-08-17T06:32:25.002Z,20.20
2018-08-17T06:34:53.542Z,20.30
2018-08-17T06:37:22.864Z,20.40
2018-08-17T06:39:51.517Z,20.50
2018-08-17T06:42:19.967Z,20.60
2018-08-17T06:44:48.755Z,20.70
2018-08-17T06:47:17.453Z,20.80
2018-08-17T06:49:46.017Z,20.90
2018-08-17T06:52:14.623Z,21.00
2018-08-17T06:54:43.075Z,21.10
2018-08-17T06:57:11.526Z,21.20
2018-08-17T06:59:40.104Z,21.30
2018-08-17T07:02:08.606Z,21.40
2018-08-17T07:04:37.088Z,21.50
2018-08-17T07:07:05.641Z,21.50
2018-08-17T07:09:34.159Z,21.60
2018-08-17T07:12:02.784Z,21.60
2018-08-17T07:14:31.223Z,21.70
2018-08-17T07:16:59.662Z,21.80
2018-08-17T07:19:28.601Z,22.00
2018-08-17T07:21:57.046Z,22.10
2018-08-17T07:24:25.866Z,22.30
2018-08-17T07:26:54.521Z,22.40
2018-08-17T07:29:23.032Z,22.50
2018-08-17T07:31:51.614Z,22.60
2018-08-17T07:34:20.070Z,22.80
2018-08-17T07:36:48.652Z,22.90
2018-08-17T07:39:17.086Z,23.10
2018-08-17T07:41:45.768Z,23.20
2018-08-17T07:44:14.566Z,23.30
2018-08-17T07:46:43.244Z,23.40
2018-08-17T07:49:11.759Z,23.50
2018-08-17T07:51:40.184Z,23.50
2018-08-17T07:54:08.847Z,23.70
2018-08-17T07:56:37.889Z,23.70
2018-08-17T07:59:06.388Z,23.70
2018-08-17T08:01:35.221Z,23.80
2018-08-17T08:04:04.147Z,23.80
2018-08-17T08:06:33.096Z,23.80
2018-08-17T08:09:01.894Z,23.90
2018-08-17T08:11:30.713Z,23.90
2018-08-17T08:13:59.200Z,24.10
2018-08-17T08:16:27.914Z,24.20
2018-08-17T08:18:56.620Z,24.30
2018-08-17T08:21:25.119Z,24.40
2018-08-17T08:23:53.820Z,24.60
2018-08-17T08:26:22.952Z,24.60
2018-08-17T08:28:51.650Z,24.70
2018-08-17T08:31:20.408Z,24.80
2018-08-17T08:33:49.102Z,25.00
2018-08-17T08:36:17.850Z,25.10
2018-08-17T08:38:46.895Z,25.20
2018-08-17T08:41:15.877Z,25.30
2018-08-17T08:43:44.391Z,25.30
2018-08-17T08:46:13.115Z,25.40
2018-08-17T08:48:41.879Z,25.60
2018-08-17T08:51:10.953Z,25.60
2018-08-17T08:53:39.610Z,25.70
2018-08-17T08:56:08.534Z,25.70
2018-08-17T08:58:37.076Z,25.80
2018-08-17T09:01:06.358Z,25.90
2018-08-17T09:03:35.612Z,25.90
2018-08-17T09:06:04.298Z,25.90
2018-08-17T09:08:33.058Z,26.00
2018-08-17T09:11:01.831Z,26.00
2018-08-17T09:13:30.808Z,26.10
2018-08-17T09:15:59.989Z,26.20
2018-08-17T09:18:28.708Z,26.20
2018-08-17T09:20:57.403Z,26.20
2018-08-17T09:23:26.162Z,26.20
2018-08-17T09:25:54.897Z,26.20
2018-08-17T09:28:23.346Z,26.20
2018-08-17T09:30:52.086Z,26.10
2018-08-17T09:33:21.026Z,26.20
2018-08-17T09:35:49.756Z,26.40
2018-08-17T09:38:18.658Z,26.40
2018-08-17T09:40:47.443Z,26.50
2018-08-17T09:43:16.202Z,26.60
2018-08-17T09:45:45.059Z,26.70
2018-08-17T09:48:13.953Z,26.80
2018-08-17T09:50:43.561Z,26.90
2018-08-17T09:53:13.144Z,26.70
2018-08-17T09:55:42.790Z,26.80
2018-08-17T09:58:12.538Z,26.80
2018-08-17T10:00:47.195Z,26.80
2018-08-17T10:03:21.338Z,26.80
2018-08-17T10:05:55.608Z,26.60
2018-08-17T10:08:30.111Z,26.60
2018-08-17T10:10:59.248Z,26.60
2018-08-17T10:13:29.261Z,26.60
2018-08-17T10:15:58.323Z,26.60
2018-08-17T10:18:36.194Z,26.60
2018-08-17T10:21:05.182Z,26.60
2018-08-17T10:23:34.016Z,26.60
2018-08-17T10:26:03.038Z,26.60
2018-08-17T10:28:31.572Z,26.50
2018-08-17T10:31:00.709Z,26.40
2018-08-17T10:33:31.089Z,26.40
2018-08-17T10:36:01.062Z,26.40
2018-08-17T10:38:29.500Z,26.40
2018-08-17T10:40:59.375Z,26.40
2018-08-17T10:43:29.916Z,26.50
2018-08-17T10:46:00.114Z,26.60
2018-08-17T10:48:30.426Z,26.60
2018-08-17T10:51:00.318Z,26.70
2018-08-17T10:53:36.341Z,26.80
2018-08-17T10:56:05.435Z,26.80
2018-08-17T10:58:34.165Z,26.80
2018-08-17T11:01:03.168Z,26.80
2018-08-17T11:03:31.677Z,26.90
2018-08-17T11:06:00.450Z,26.90
2018-08-17T11:08:29.206Z,26.80
2018-08-17T11:10:58.006Z,26.90
2018-08-17T11:13:27.095Z,27.00
2018-08-17T11:15:55.966Z,27.00
2018-08-17T11:18:24.664Z,27.00
2018-08-17T11:20:54.034Z,27.00
2018-08-17T11:23:23.308Z,27.20
2018-08-17T11:25:52.140Z,27.30
2018-08-17T11:28:21.191Z,27.50
2018-08-17T11:30:49.949Z,27.50
2018-08-17T11:33:24.125Z,27.60
2018-08-17T11:35:53.600Z,27.70
2018-08-17T11:38:23.262Z,27.90
2018-08-17T11:40:51.954Z,27.90
2018-08-17T11:43:20.700Z,27.90
2018-08-17T11:45:49.426Z,28.10
2018-08-17T11:48:27.206Z,28.10
2018-08-17T11:50:56.531Z,28.10
2018-08-17T11:53:25.338Z,28.10
2018-08-17T11:55:54.199Z,28.30
2018-08-17T11:58:23.334Z,28.40
2018-08-17T12:00:52.122Z,28.70
2018-08-17T12:03:21.177Z,28.60
2018-08-17T12:05:50.183Z,28.40
2018-08-17T12:08:19.340Z,28.50
2018-08-17T12:10:52.460Z,28.70
2018-08-17T12:13:21.229Z,29.10
2018-08-17T12:15:56.436Z,29.30
2018-08-17T12:18:25.635Z,29.50
2018-08-17T12:20:54.654Z,29.50
2018-08-17T12:23:23.843Z,29.60
2018-08-17T12:25:56.482Z,29.80
2018-08-17T12:28:26.719Z,30.00
2018-08-17T12:30:55.578Z,30.00
2018-08-17T12:33:24.251Z,29.90
2018-08-17T12:35:53.246Z,29.80
2018-08-17T12:38:23.192Z,29.70
2018-08-17T12:40:53.487Z,29.70
2018-08-17T12:43:28.215Z,29.70
2018-08-17T12:45:57.259Z,30.00
2018-08-17T12:48:26.321Z,30.20
2018-08-17T12:50:59.255Z,30.40
2018-08-17T12:53:27.768Z,30.50
2018-08-17T12:55:56.438Z,30.40
2018-08-17T12:58:25.110Z,30.60
2018-08-17T13:00:54.109Z,30.70
2018-08-17T13:03:23.347Z,30.90
2018-08-17T13:05:52.123Z,31.10
2018-08-17T13:08:20.874Z,31.20
2018-08-17T13:10:49.574Z,31.30
2018-08-17T13:13:18.528Z,31.30
2018-08-17T13:15:56.455Z,31.30
2018-08-17T13:18:25.195Z,31.20
2018-08-17T13:20:54.194Z,31.20
2018-08-17T13:23:23.487Z,31.30
2018-08-17T13:25:52.676Z,31.60
2018-08-17T13:28:21.412Z,32.20
2018-08-17T13:30:50.138Z,32.50
2018-08-17T13:33:18.957Z,32.70
2018-08-17T13:35:47.705Z,32.80
2018-08-17T13:38:16.384Z,33.00
2018-08-17T13:40:45.088Z,33.00
2018-08-17T13:43:13.862Z,33.10
2018-08-17T13:45:42.577Z,33.30
2018-08-17T13:48:11.303Z,33.70
2018-08-17T13:50:39.962Z,34.00
2018-08-17T13:53:08.621Z,34.00
2018-08-17T13:55:37.288Z,34.10
2018-08-17T13:58:06.323Z,34.20
2018-08-17T14:00:35.307Z,34.10
2018-08-17T14:03:04.403Z,34.20
2018-08-17T14:05:33.131Z,34.30
2018-08-17T14:08:01.839Z,34.50
2018-08-17T14:10:30.507Z,34.70
2018-08-17T14:12:59.296Z,35.00
2018-08-17T14:15:27.805Z,35.20
2018-08-17T14:17:56.570Z,35.50
2018-08-17T14:20:25.353Z,35.80
2018-08-17T14:22:54.310Z,35.70
2018-08-17T14:25:23.486Z,35.50
2018-08-17T14:27:52.220Z,35.30
2018-08-17T14:30:20.946Z,35.00
2018-08-17T14:32:49.660Z,34.90
2018-08-17T14:35:18.379Z,35.00
2018-08-17T14:37:47.342Z,34.90
2018-08-17T14:40:16.466Z,35.10
2018-08-17T14:42:45.332Z,35.10
2018-08-17T14:45:14.338Z,34.90
2018-08-17T14:47:43.413Z,34.70
2018-08-17T14:50:13.559Z,34.60
2018-08-17T14:52:42.665Z,34.50
2018-08-17T14:55:12.120Z,34.60
2018-08-17T14:57:40.855Z,34.90
2018-08-17T15:00:11.664Z,34.90
2018-08-17T15:02:40.396Z,35.20
2018-08-17T15:05:11.103Z,35.30
2018-08-17T15:07:39.735Z,35.20
2018-08-17T15:10:10.256Z,35.50
2018-08-17T15:12:39.034Z,36.60
2018-08-17T15:15:08.882Z,38.40
2018-08-17T15:17:37.877Z,38.00
2018-08-17T15:20:07.622Z,37.30
2018-08-17T15:22:36.336Z,36.50
2018-08-17T15:25:05.342Z,35.50
2018-08-17T15:27:33.856Z,35.20
2018-08-17T15:30:02.574Z,34.80
2018-08-17T15:32:31.246Z,34.30
2018-08-17T15:34:59.946Z,34.10
2018-08-17T15:37:28.618Z,33.40
2018-08-17T15:39:57.611Z,33.20
2018-08-17T15:42:26.305Z,33.00
2018-08-17T15:44:55.131Z,32.80
2018-08-17T15:47:23.993Z,32.40
2018-08-17T15:50:06.908Z,32.10
2018-08-17T15:52:35.627Z,31.80
2018-08-17T15:55:04.515Z,31.60
2018-08-17T15:57:33.621Z,31.50
2018-08-17T16:00:02.440Z,31.30
2018-08-17T16:02:31.170Z,31.20
2018-08-17T16:04:59.881Z,30.90
2018-08-17T16:07:28.595Z,30.70
2018-08-17T16:09:57.578Z,30.60
2018-08-17T16:12:26.047Z,30.40
2018-08-17T16:14:54.738Z,30.40
2018-08-17T16:17:23.961Z,30.20
2018-08-17T16:19:52.646Z,30.00
2018-08-17T16:22:21.542Z,30.00
2018-08-17T16:24:50.630Z,29.90
2018-08-17T16:27:19.428Z,29.70
2018-08-17T16:29:48.187Z,29.70
2018-08-17T16:32:16.867Z,29.80
2018-08-17T16:34:45.588Z,29.70
2018-08-17T16:37:14.576Z,29.70
2018-08-17T16:39:49.934Z,29.70
2018-08-17T16:42:23.985Z,29.80
2018-08-17T16:47:14.862Z,29.80
2018-08-17T16:49:43.643Z,29.80
2018-08-17T16:52:12.821Z,29.50
2018-08-17T16:54:41.628Z,29.50
2018-08-17T16:57:10.559Z,29.50
2018-08-17T16:59:39.269Z,29.30
2018-08-17T17:02:08.019Z,29.20
2018-08-17T17:04:39.555Z,29.30
2018-08-17T17:07:08.826Z,29.70
2018-08-17T17:09:37.589Z,29.60
2018-08-17T17:12:13.926Z,29.40
2018-08-17T17:14:43.151Z,29.10
2018-08-17T17:17:11.939Z,28.90
2018-08-17T17:19:40.706Z,28.60
2018-08-17T17:22:09.794Z,28.40
2018-08-17T17:24:38.298Z,28.20
2018-08-17T17:27:07.404Z,28.00
2018-08-17T17:29:37.029Z,27.90
2018-08-17T17:32:06.382Z,27.80
2018-08-17T17:34:35.167Z,27.60
2018-08-17T17:37:04.039Z,27.50
2018-08-17T17:39:32.759Z,27.40
2018-08-17T17:42:01.750Z,27.30
2018-08-17T17:44:30.232Z,27.20
2018-08-17T17:46:59.196Z,27.10
2018-08-17T17:49:27.976Z,27.00
2018-08-17T17:51:56.655Z,26.90
2018-08-17T17:54:25.990Z,26.90
2018-08-17T17:57:00.771Z,26.70
2018-08-17T17:59:29.815Z,26.70
2018-08-17T18:01:58.672Z,26.60
2018-08-17T18:04:31.722Z,26.50
2018-08-17T18:07:00.924Z,26.40
2018-08-17T18:09:31.637Z,26.30
2018-08-17T18:12:00.740Z,26.20
2018-08-17T18:14:29.751Z,26.20
2018-08-17T18:16:58.823Z,26.10
2018-08-17T18:19:27.869Z,26.10
2018-08-17T18:21:56.847Z,25.90
2018-08-17T18:24:25.924Z,25.90
2018-08-17T18:26:54.653Z,25.80
2018-08-17T18:29:24.083Z,25.70
2018-08-17T18:31:52.855Z,25.60
2018-08-17T18:34:22.493Z,25.60
2018-08-17T18:36:51.831Z,25.50
2018-08-17T18:39:20.813Z,25.40
2018-08-17T18:41:49.999Z,25.40
2018-08-17T18:44:18.695Z,25.30
2018-08-17T18:46:47.449Z,25.30
2018-08-17T18:49:16.179Z,25.20
2018-08-17T18:51:44.878Z,25.10
2018-08-17T18:54:13.946Z,25.10
2018-08-17T18:56:42.631Z,25.10
2018-08-17T18:59:11.518Z,25.00
2018-08-17T22:03:33.064Z,22.70
2018-08-17T22:06:02.087Z,22.50
2018-08-17T22:08:30.524Z,22.40
2018-08-17T22:10:59.220Z,22.30
2018-08-17T22:13:33.282Z,22.20
2018-08-17T22:16:02.417Z,22.10
2018-08-17T22:18:31.526Z,22.00
2018-08-17T22:21:00.245Z,22.00
2018-08-17T22:23:29.798Z,21.90
2018-08-17T22:25:58.796Z,21.90
2018-08-17T22:28:27.279Z,21.90
2018-08-17T22:30:56.091Z,21.80
2018-08-17T22:33:24.590Z,21.80
2018-08-17T22:35:53.073Z,21.80
2018-08-17T22:38:21.906Z,21.80
2018-08-17T22:40:50.354Z,21.80
2018-08-17T22:43:19.004Z,21.70
2018-08-17T22:45:47.454Z,21.70
2018-08-17T22:48:16.317Z,21.70
2018-08-17T22:50:45.352Z,21.60
2018-08-17T22:53:14.073Z,21.60
2018-08-17T22:55:42.612Z,21.60
2018-08-17T22:58:11.343Z,21.60
2018-08-17T23:00:40.135Z,21.60
2018-08-17T23:03:09.128Z,21.50
2018-08-17T23:05:37.662Z,21.50
2018-08-17T23:08:06.174Z,21.50
2018-08-17T23:10:34.619Z,21.40
2018-08-17T23:13:03.103Z,21.40
2018-08-17T23:15:31.576Z,21.40
2018-08-17T23:18:01.284Z,21.40
2018-08-17T23:20:35.471Z,21.30
2018-08-17T23:23:05.205Z,21.30
2018-08-17T23:25:33.871Z,21.20
2018-08-17T23:28:02.543Z,21.20
2018-08-17T23:30:31.286Z,21.20
2018-08-17T23:32:59.694Z,21.10
2018-08-17T23:35:28.198Z,21.10
2018-08-17T23:37:56.630Z,21.10
2018-08-17T23:40:25.323Z,21.10
2018-08-17T23:42:54.033Z,21.10
2018-08-17T23:45:22.464Z,21.00
2018-08-17T23:47:51.143Z,21.00
2018-08-17T23:50:19.665Z,21.00
2018-08-17T23:52:48.307Z,20.90
2018-08-17T23:55:17.827Z,20.90
2018-08-17T23:57:46.389Z,20.90
